createdAt,value
2023-05-13T00:01:56.498Z,15.70
2023-05-13T00:04:24.978Z,15.60
2023-05-13T00:06:53.421Z,15.60
2023-05-13T00:09:21.770Z,15.60
2023-05-13T00:11:50.149Z,15.60
2023-05-13T00:14:18.546Z,15.50
2023-05-13T00:16:49.414Z,15.50
2023-05-13T00:19:19.278Z,15.20
2023-05-13T00:21:47.915Z,15.20
2023-05-13T00:24:16.305Z,14.90
2023-05-13T00:26:44.767Z,14.90
2023-05-13T00:29:14.301Z,14.90
2023-05-13T00:31:43.444Z,15.10
2023-05-13T00:34:12.019Z,15.10
2023-05-13T00:36:42.183Z,15.10
2023-05-13T00:39:11.969Z,15.00
2023-05-13T00:41:40.338Z,15.00
2023-05-13T00:44:09.499Z,15.00
2023-05-13T00:46:38.211Z,14.80
2023-05-13T00:49:06.666Z,14.70
2023-05-13T00:51:35.184Z,14.60
2023-05-13T00:54:06.075Z,14.60
2023-05-13T00:56:34.695Z,14.70
2023-05-13T00:59:03.176Z,15.00
2023-05-13T01:01:39.658Z,15.10
2023-05-13T01:04:18.817Z,15.10
2023-05-13T01:06:58.004Z,15.00
2023-05-13T01:09:38.791Z,15.10
2023-05-13T01:12:10.452Z,15.10
2023-05-13T01:14:44.875Z,15.00
2023-05-13T01:17:16.337Z,15.00
2023-05-13T01:19:50.647Z,15.20
2023-05-13T01:22:20.420Z,15.20
2023-05-13T01:24:50.650Z,15.20
2023-05-13T01:27:19.955Z,15.30
2023-05-13T01:29:50.423Z,15.30
2023-05-13T01:32:25.159Z,15.30
2023-05-13T01:34:54.546Z,15.30
2023-05-13T01:37:25.231Z,15.30
2023-05-13T01:39:57.068Z,15.20
2023-05-13T01:42:26.713Z,15.20
2023-05-13T01:44:55.429Z,15.20
2023-05-13T01:47:24.869Z,15.10
2023-05-13T01:49:53.601Z,15.10
2023-05-13T01:52:21.988Z,15.10
2023-05-13T01:54:51.985Z,14.80
2023-05-13T01:57:21.439Z,14.60
2023-05-13T01:59:49.763Z,14.70
2023-05-13T02:02:18.275Z,14.80
2023-05-13T02:04:48.220Z,14.70
2023-05-13T02:07:17.502Z,14.70
2023-05-13T02:09:48.083Z,14.60
2023-05-13T02:12:17.847Z,14.60
2023-05-13T02:14:46.818Z,14.60
2023-05-13T02:17:24.781Z,14.70
2023-05-13T02:19:56.744Z,14.80
2023-05-13T02:22:26.188Z,14.80
2023-05-13T02:24:59.586Z,14.80
2023-05-13T02:27:29.312Z,14.90
2023-05-13T02:29:59.062Z,15.00
2023-05-13T02:32:29.481Z,15.00
2023-05-13T02:34:59.741Z,15.10
2023-05-13T02:37:28.488Z,15.10
2023-05-13T02:40:05.232Z,15.10
2023-05-13T02:42:36.006Z,15.10
2023-05-13T02:45:05.228Z,15.00
2023-05-13T02:47:36.018Z,14.90
2023-05-13T02:50:09.949Z,14.80
2023-05-13T02:52:39.296Z,14.80
2023-05-13T02:55:09.642Z,14.80
2023-05-13T02:57:40.810Z,14.60
2023-05-13T03:00:11.117Z,14.50
2023-05-13T03:02:40.176Z,14.50
2023-05-13T03:05:10.417Z,14.40
2023-05-13T03:07:40.971Z,14.40
2023-05-13T03:10:10.480Z,14.20
2023-05-13T03:12:40.455Z,14.10
2023-05-13T03:15:10.072Z,14.20
2023-05-13T03:17:39.649Z,14.10
2023-05-13T03:20:09.707Z,13.70
2023-05-13T03:22:38.836Z,13.20
2023-05-13T03:25:08.187Z,12.90
2023-05-13T03:27:44.755Z,12.70
2023-05-13T03:30:14.429Z,12.60
2023-05-13T03:32:50.160Z,12.30
2023-05-13T03:35:19.119Z,12.30
2023-05-13T03:37:49.356Z,12.30
2023-05-13T03:40:19.211Z,12.70
2023-05-13T03:42:49.643Z,12.80
2023-05-13T03:45:19.475Z,13.10
2023-05-13T03:47:52.139Z,13.10
2023-05-13T03:50:22.959Z,12.80
2023-05-13T03:52:53.377Z,12.90
2023-05-13T03:55:23.417Z,13.00
2023-05-13T03:57:53.665Z,13.10
2023-05-13T04:00:23.273Z,13.50
2023-05-13T04:02:52.019Z,13.60
2023-05-13T04:05:20.617Z,13.70
2023-05-13T04:07:49.300Z,13.70
2023-05-13T04:10:18.375Z,13.70
2023-05-13T04:12:47.766Z,13.70
2023-05-13T04:15:17.661Z,13.70
2023-05-13T04:17:46.101Z,13.70
2023-05-13T04:20:14.598Z,13.20
2023-05-13T04:22:42.929Z,13.20
2023-05-13T04:25:12.011Z,13.40
2023-05-13T04:27:42.311Z,13.50
2023-05-13T04:30:18.705Z,13.70
2023-05-13T04:32:49.431Z,13.80
2023-05-13T04:35:18.470Z,13.80
2023-05-13T04:37:52.347Z,14.00
2023-05-13T04:40:22.550Z,13.90
2023-05-13T04:42:55.139Z,14.00
2023-05-13T04:45:36.056Z,13.90
2023-05-13T04:48:07.547Z,13.80
2023-05-13T04:50:37.069Z,13.80
2023-05-13T04:53:05.958Z,13.70
2023-05-13T04:55:35.118Z,13.70
2023-05-13T04:58:04.356Z,13.80
2023-05-13T05:00:34.489Z,13.90
2023-05-13T05:03:03.462Z,13.70
2023-05-13T05:05:31.897Z,13.70
2023-05-13T05:08:00.519Z,13.40
2023-05-13T05:10:29.401Z,13.30
2023-05-13T05:13:00.988Z,13.20
2023-05-13T05:15:30.343Z,12.90
2023-05-13T05:18:03.014Z,13.00
2023-05-13T05:20:32.717Z,13.00
2023-05-13T05:23:03.623Z,12.90
2023-05-13T05:25:33.497Z,12.80
2023-05-13T05:28:04.935Z,12.90
2023-05-13T05:30:39.690Z,12.80
2023-05-13T05:33:15.945Z,12.70
2023-05-13T05:35:44.743Z,12.70
2023-05-13T05:38:17.309Z,12.60
2023-05-13T05:40:47.460Z,12.50
2023-05-13T05:43:16.457Z,12.60
2023-05-13T05:45:45.882Z,12.60
2023-05-13T05:48:21.755Z,12.60
2023-05-13T05:50:50.541Z,12.60
2023-05-13T05:53:26.490Z,12.70
2023-05-13T05:55:55.693Z,12.80
2023-05-13T05:58:27.088Z,12.70
2023-05-13T06:00:57.103Z,12.70
2023-05-13T06:03:27.446Z,12.80
2023-05-13T06:05:56.589Z,12.80
2023-05-13T06:08:29.993Z,12.70
2023-05-13T06:11:00.941Z,12.80
2023-05-13T06:13:30.011Z,12.90
2023-05-13T06:15:58.422Z,13.00
2023-05-13T06:18:28.917Z,13.00
2023-05-13T06:20:57.644Z,13.10
2023-05-13T06:23:26.137Z,13.30
2023-05-13T06:25:54.960Z,13.30
2023-05-13T06:28:24.403Z,13.40
2023-05-13T06:30:54.550Z,13.50
2023-05-13T06:33:23.103Z,13.70
2023-05-13T06:35:53.702Z,13.80
2023-05-13T06:38:23.692Z,13.90
2023-05-13T06:40:56.613Z,13.90
2023-05-13T06:43:32.228Z,14.10
2023-05-13T06:46:08.392Z,14.10
2023-05-13T06:48:37.216Z,14.20
2023-05-13T06:51:08.782Z,14.50
2023-05-13T06:53:37.372Z,14.70
2023-05-13T06:56:07.123Z,14.90
2023-05-13T06:58:35.626Z,15.10
2023-05-13T07:01:05.655Z,15.00
2023-05-13T07:03:34.103Z,15.00
2023-05-13T07:06:02.560Z,14.90
2023-05-13T07:08:32.373Z,14.90
2023-05-13T07:11:01.273Z,14.80
2023-05-13T07:13:31.025Z,14.90
2023-05-13T07:15:59.488Z,14.80
2023-05-13T07:18:28.063Z,15.00
2023-05-13T07:20:57.638Z,14.80
2023-05-13T07:23:26.241Z,15.00
2023-05-13T07:25:56.520Z,15.00
2023-05-13T07:28:25.039Z,14.80
2023-05-13T07:30:54.254Z,14.70
2023-05-13T07:33:23.168Z,14.60
2023-05-13T07:35:51.543Z,14.60
2023-05-13T07:38:20.370Z,14.80
2023-05-13T07:40:48.747Z,14.70
2023-05-13T07:43:23.806Z,14.80
2023-05-13T07:45:53.257Z,15.00
2023-05-13T07:48:21.695Z,15.00
2023-05-13T07:50:50.730Z,15.10
2023-05-13T07:53:20.531Z,15.10
2023-05-13T07:55:49.348Z,15.00
2023-05-13T07:58:21.135Z,15.10
2023-05-13T08:00:50.248Z,15.20
2023-05-13T08:03:20.465Z,15.30
2023-05-13T08:05:49.360Z,15.40
2023-05-13T08:08:17.700Z,15.30
2023-05-13T08:10:48.885Z,15.50
2023-05-13T08:13:18.781Z,15.70
2023-05-13T08:15:47.651Z,15.80
2023-05-13T08:18:16.673Z,15.90
2023-05-13T08:20:45.427Z,16.10
2023-05-13T08:23:13.824Z,16.10
2023-05-13T08:25:42.937Z,15.90
2023-05-13T08:28:14.699Z,15.80
2023-05-13T08:30:45.481Z,15.80
2023-05-13T08:33:14.274Z,15.90
2023-05-13T08:35:45.731Z,16.00
2023-05-13T08:38:14.196Z,16.10
2023-05-13T08:40:43.515Z,16.10
2023-05-13T08:43:17.217Z,16.20
2023-05-13T08:45:49.086Z,16.20
2023-05-13T08:48:19.409Z,16.20
2023-05-13T08:50:48.603Z,16.20
2023-05-13T08:53:19.420Z,16.30
2023-05-13T08:55:49.707Z,16.40
2023-05-13T08:58:18.132Z,16.50
2023-05-13T09:00:49.600Z,16.70
2023-05-13T09:03:18.040Z,16.70
2023-05-13T09:05:50.470Z,16.70
2023-05-13T09:08:19.073Z,16.70
2023-05-13T09:10:48.183Z,16.70
2023-05-13T09:13:19.621Z,16.70
2023-05-13T09:15:51.394Z,16.70
2023-05-13T09:18:20.304Z,16.80
2023-05-13T09:20:48.721Z,17.00
2023-05-13T09:23:17.495Z,17.10
2023-05-13T09:25:46.152Z,17.10
2023-05-13T09:28:16.422Z,17.20
2023-05-13T09:30:46.792Z,17.40
2023-05-13T09:33:20.153Z,17.50
2023-05-13T09:35:52.926Z,17.60
2023-05-13T09:38:23.242Z,17.70
2023-05-13T09:40:52.921Z,17.80
2023-05-13T09:43:22.999Z,17.80
2023-05-13T09:45:55.298Z,17.80
2023-05-13T09:48:27.581Z,17.90
2023-05-13T09:50:58.317Z,17.90
2023-05-13T09:53:27.442Z,17.90
2023-05-13T09:55:58.737Z,17.90
2023-05-13T09:58:30.857Z,18.00
2023-05-13T10:00:59.911Z,17.90
2023-05-13T10:03:31.892Z,18.10
2023-05-13T10:06:03.399Z,18.20
2023-05-13T10:08:33.265Z,18.20
2023-05-13T10:11:02.713Z,18.40
2023-05-13T10:13:33.410Z,18.40
2023-05-13T10:16:02.669Z,18.30
2023-05-13T10:18:33.562Z,18.30
2023-05-13T10:21:03.588Z,18.20
2023-05-13T10:23:36.373Z,18.40
2023-05-13T10:26:07.878Z,18.60
2023-05-13T10:28:37.135Z,18.70
2023-05-13T10:31:07.416Z,18.50
2023-05-13T10:33:37.275Z,18.50
2023-05-13T10:36:21.274Z,18.60
2023-05-13T10:39:07.549Z,18.50
2023-05-13T10:42:23.884Z,18.00
2023-05-13T10:44:55.839Z,18.30
2023-05-13T10:47:24.847Z,18.30
2023-05-13T10:49:55.058Z,18.10
2023-05-13T10:52:23.376Z,18.40
2023-05-13T10:55:03.301Z,18.30
2023-05-13T10:57:39.016Z,18.50
2023-05-13T11:00:18.774Z,18.50
2023-05-13T11:02:47.418Z,18.50
2023-05-13T11:05:23.419Z,18.40
2023-05-13T11:07:59.574Z,18.30
2023-05-13T11:10:31.222Z,18.40
2023-05-13T11:13:24.848Z,18.40
2023-05-13T11:15:56.072Z,18.50
2023-05-13T11:18:31.355Z,18.50
2023-05-13T11:21:05.845Z,18.50
2023-05-13T11:23:35.961Z,18.60
2023-05-13T11:26:12.333Z,18.40
2023-05-13T11:28:58.676Z,18.50
2023-05-13T11:31:29.148Z,18.40
2023-05-13T11:34:09.624Z,18.30
2023-05-13T11:36:41.540Z,18.30
2023-05-13T11:39:16.373Z,18.40
2023-05-13T11:41:47.380Z,18.60
2023-05-13T11:44:18.660Z,18.80
2023-05-13T11:46:54.859Z,19.00
2023-05-13T11:49:39.092Z,19.20
2023-05-13T11:52:11.360Z,19.30
2023-05-13T11:54:46.489Z,19.20
2023-05-13T11:57:25.970Z,19.10
2023-05-13T11:59:58.628Z,19.20
2023-05-13T12:02:28.827Z,19.20
2023-05-13T12:05:01.501Z,19.40
2023-05-13T12:07:32.293Z,19.50
2023-05-13T12:10:02.554Z,19.60
2023-05-13T12:12:34.522Z,19.50
2023-05-13T12:15:04.940Z,19.70
2023-05-13T12:17:35.666Z,19.60
2023-05-13T12:20:12.744Z,19.70
2023-05-13T12:22:58.833Z,19.90
2023-05-13T12:25:51.364Z,20.00
2023-05-13T12:28:21.243Z,20.00
2023-05-13T12:30:56.077Z,19.90
2023-05-13T12:33:27.892Z,19.80
2023-05-13T12:36:17.821Z,19.60
2023-05-13T12:39:00.489Z,19.70
2023-05-13T12:41:32.347Z,19.50
2023-05-13T12:44:02.498Z,19.40
2023-05-13T12:46:31.577Z,19.50
2023-05-13T12:49:01.939Z,19.60
2023-05-13T12:51:31.372Z,19.80
2023-05-13T12:54:01.812Z,19.80
2023-05-13T12:56:30.257Z,19.70
2023-05-13T12:59:01.062Z,19.30
2023-05-13T13:01:30.053Z,19.40
2023-05-13T13:03:58.418Z,19.60
2023-05-13T13:06:28.641Z,19.60
2023-05-13T13:08:57.035Z,19.80
2023-05-13T13:11:27.276Z,19.90
2023-05-13T13:13:56.423Z,19.80
2023-05-13T13:16:25.026Z,20.00
2023-05-13T13:18:55.701Z,20.00
2023-05-13T13:21:25.062Z,19.80
2023-05-13T13:23:53.574Z,19.80
2023-05-13T13:26:23.361Z,19.70
2023-05-13T13:28:53.804Z,19.50
2023-05-13T13:31:22.248Z,19.50
2023-05-13T13:33:50.676Z,19.50
2023-05-13T13:36:19.512Z,19.60
2023-05-13T13:38:48.307Z,19.60
2023-05-13T13:41:17.825Z,19.50
2023-05-13T13:43:46.135Z,19.40
2023-05-13T13:46:16.536Z,19.20
2023-05-13T13:48:45.367Z,19.10
2023-05-13T13:51:14.382Z,18.90
2023-05-13T13:53:42.738Z,18.90
2023-05-13T13:56:12.299Z,19.00
2023-05-13T13:58:41.058Z,19.20
2023-05-13T14:01:09.530Z,19.40
2023-05-13T14:03:40.079Z,19.60
2023-05-13T14:06:09.360Z,19.60
2023-05-13T14:08:38.107Z,19.30
2023-05-13T14:11:06.601Z,19.50
2023-05-13T14:13:35.029Z,19.40
2023-05-13T14:16:03.764Z,19.30
2023-05-13T14:18:32.241Z,19.30
2023-05-13T14:21:02.174Z,19.30
2023-05-13T14:23:30.558Z,19.20
2023-05-13T14:25:59.483Z,19.20
2023-05-13T14:28:27.927Z,18.90
2023-05-13T14:30:56.355Z,19.00
2023-05-13T14:33:24.887Z,19.20
2023-05-13T14:35:53.543Z,19.20
2023-05-13T14:38:24.127Z,19.30
2023-05-13T14:40:53.060Z,19.30
2023-05-13T14:43:21.442Z,19.30
2023-05-13T14:45:50.471Z,19.40
2023-05-13T14:48:20.724Z,19.50
2023-05-13T14:50:49.131Z,19.70
2023-05-13T14:53:17.542Z,19.60
2023-05-13T14:55:49.443Z,19.70
2023-05-13T14:58:19.613Z,19.90
2023-05-13T15:00:48.728Z,19.90
2023-05-13T15:03:17.413Z,19.90
2023-05-13T15:05:47.038Z,19.90
2023-05-13T15:08:15.762Z,19.90
2023-05-13T15:10:44.226Z,19.60
2023-05-13T15:13:14.018Z,19.60
2023-05-13T15:15:43.933Z,19.80
2023-05-13T15:18:12.284Z,20.00
2023-05-13T15:20:40.805Z,20.10
2023-05-13T15:23:09.244Z,19.90
2023-05-13T15:25:37.921Z,19.80
2023-05-13T15:28:06.481Z,20.00
2023-05-13T15:30:36.668Z,20.10
2023-05-13T15:33:05.587Z,20.10
2023-05-13T15:35:35.363Z,19.80
2023-05-13T15:38:04.522Z,19.70
2023-05-13T15:40:32.961Z,19.80
2023-05-13T15:43:01.771Z,19.80
2023-05-13T15:45:30.664Z,19.70
2023-05-13T15:48:00.432Z,19.80
2023-05-13T15:50:29.016Z,19.70
2023-05-13T15:52:57.580Z,19.70
2023-05-13T15:55:26.356Z,19.60
2023-05-13T15:57:55.817Z,19.80
2023-05-13T16:00:24.341Z,19.60
2023-05-13T16:02:53.734Z,19.60
2023-05-13T16:05:23.666Z,19.80
2023-05-13T16:07:52.071Z,19.90
2023-05-13T16:10:20.858Z,19.80
2023-05-13T16:12:49.504Z,19.70
2023-05-13T16:15:17.944Z,19.60
2023-05-13T16:17:46.343Z,19.40
2023-05-13T16:20:14.913Z,19.60
2023-05-13T16:22:44.810Z,19.70
2023-05-13T16:25:13.404Z,19.60
2023-05-13T16:27:43.241Z,19.60
2023-05-13T16:30:12.760Z,19.60
2023-05-13T16:32:41.327Z,19.30
2023-05-13T16:35:11.675Z,19.00
2023-05-13T16:37:40.275Z,19.10
2023-05-13T16:40:11.722Z,19.00
2023-05-13T16:42:40.494Z,18.90
2023-05-13T16:45:09.558Z,19.00
2023-05-13T16:47:40.387Z,19.20
2023-05-13T16:50:12.304Z,19.30
2023-05-13T16:52:40.775Z,19.30
2023-05-13T16:55:11.114Z,19.30
2023-05-13T16:57:40.830Z,19.30
2023-05-13T17:00:10.442Z,19.40
2023-05-13T17:02:39.068Z,19.10
2023-05-13T17:05:08.674Z,19.20
2023-05-13T17:07:37.271Z,19.20
2023-05-13T17:10:06.506Z,19.20
2023-05-13T17:12:36.711Z,19.00
2023-05-13T17:15:05.802Z,19.00
2023-05-13T17:17:34.349Z,18.90
2023-05-13T17:20:03.605Z,19.00
2023-05-13T17:22:32.125Z,19.10
2023-05-13T17:25:00.587Z,19.30
2023-05-13T17:27:29.244Z,19.40
2023-05-13T17:29:59.205Z,19.10
2023-05-13T17:32:27.640Z,19.00
2023-05-13T17:34:56.050Z,19.00
2023-05-13T17:37:24.354Z,19.00
2023-05-13T17:39:52.933Z,18.90
2023-05-13T17:42:21.879Z,19.00
2023-05-13T17:44:50.813Z,18.90
2023-05-13T17:47:21.736Z,18.90
2023-05-13T17:49:50.112Z,18.70
2023-05-13T17:52:18.629Z,18.40
2023-05-13T17:54:47.383Z,18.30
2023-05-13T17:57:15.944Z,18.40
2023-05-13T17:59:44.587Z,18.40
2023-05-13T18:02:13.031Z,18.60
2023-05-13T18:04:43.901Z,18.50
2023-05-13T18:07:12.257Z,18.50
2023-05-13T18:09:40.811Z,18.40
2023-05-13T18:12:09.435Z,18.20
2023-05-13T18:14:38.471Z,18.00
2023-05-13T18:17:06.824Z,18.10
2023-05-13T18:19:35.194Z,18.10
2023-05-13T18:22:08.540Z,18.20
2023-05-13T18:24:37.560Z,18.20
2023-05-13T18:27:06.539Z,18.20
2023-05-13T18:29:35.226Z,18.20
2023-05-13T18:32:05.016Z,18.20
2023-05-13T18:34:33.895Z,18.10
2023-05-13T18:37:02.302Z,18.00
2023-05-13T18:39:32.673Z,18.00
2023-05-13T18:42:01.070Z,18.10
2023-05-13T18:44:31.510Z,18.30
2023-05-13T18:47:01.130Z,18.30
2023-05-13T18:49:31.053Z,18.40
2023-05-13T18:51:59.713Z,18.30
2023-05-13T18:54:29.294Z,18.10
2023-05-13T18:56:59.217Z,17.90
2023-05-13T18:59:27.727Z,17.80
2023-05-13T19:01:56.445Z,17.70
2023-05-13T19:04:25.665Z,17.70
2023-05-13T19:06:54.244Z,17.80
2023-05-13T19:09:22.769Z,17.70
2023-05-13T19:11:51.177Z,17.70
2023-05-13T19:14:20.861Z,17.70
2023-05-13T19:16:49.528Z,17.80
2023-05-13T19:19:18.088Z,17.80
2023-05-13T19:21:46.997Z,17.70
2023-05-13T19:24:15.426Z,17.50
2023-05-13T19:26:43.973Z,17.30
2023-05-13T19:29:12.437Z,17.10
2023-05-13T19:31:42.241Z,17.00
2023-05-13T19:34:10.607Z,16.90
2023-05-13T19:36:39.685Z,17.00
2023-05-13T19:39:08.234Z,16.80
2023-05-13T19:41:37.918Z,17.10
2023-05-13T19:44:09.743Z,17.20
2023-05-13T19:46:38.282Z,17.20
2023-05-13T19:49:09.099Z,17.20
2023-05-13T19:51:37.882Z,17.30
2023-05-13T19:54:09.497Z,17.30
2023-05-13T19:56:39.502Z,17.40
2023-05-13T19:59:08.683Z,17.80
2023-05-13T20:01:37.994Z,17.20
2023-05-13T20:04:08.097Z,16.60
2023-05-13T20:06:36.891Z,16.20
2023-05-13T20:09:05.927Z,16.10
2023-05-13T20:11:36.976Z,16.10
2023-05-13T20:14:06.112Z,16.20
2023-05-13T20:16:34.605Z,16.40
2023-05-13T20:19:03.081Z,16.70
2023-05-13T20:21:33.059Z,16.50
2023-05-13T20:24:01.428Z,16.10
2023-05-13T20:26:34.716Z,16.10
2023-05-13T20:29:03.660Z,16.40
2023-05-13T20:31:32.146Z,16.80
2023-05-13T20:34:00.562Z,16.70
2023-05-13T20:36:28.952Z,16.30
2023-05-13T20:38:58.893Z,16.50
2023-05-13T20:41:29.404Z,16.80
2023-05-13T20:43:57.875Z,16.70
2023-05-13T20:46:26.726Z,16.00
2023-05-13T20:48:55.954Z,15.60
2023-05-13T20:51:24.272Z,15.90
2023-05-13T20:53:52.543Z,16.10
2023-05-13T20:56:22.434Z,16.40
2023-05-13T20:58:52.489Z,16.20
2023-05-13T21:01:20.966Z,16.00
2023-05-13T21:03:50.199Z,15.90
2023-05-13T21:06:18.693Z,15.60
2023-05-13T21:08:47.874Z,15.60
2023-05-13T21:11:16.328Z,15.60
2023-05-13T21:13:46.267Z,15.70
2023-05-13T21:16:14.663Z,16.00
2023-05-13T21:18:43.222Z,16.30
2023-05-13T21:21:12.679Z,16.60
2023-05-13T21:23:43.109Z,16.70
2023-05-13T21:26:11.854Z,16.80
2023-05-13T21:28:41.403Z,16.60
2023-05-13T21:31:11.197Z,16.00
2023-05-13T21:33:39.633Z,15.90
2023-05-13T21:36:09.274Z,16.30
2023-05-13T21:38:38.398Z,16.70
2023-05-13T21:41:07.021Z,17.00
2023-05-13T21:43:35.520Z,17.20
2023-05-13T21:46:06.518Z,17.10
2023-05-13T21:48:37.088Z,16.70
2023-05-13T21:51:06.095Z,16.70
2023-05-13T21:53:34.863Z,16.70
2023-05-13T21:56:03.232Z,16.70
2023-05-13T21:58:31.965Z,16.90
2023-05-13T22:01:02.459Z,17.00
2023-05-13T22:03:31.272Z,16.70
2023-05-13T22:06:02.401Z,16.50
2023-05-13T22:08:31.158Z,16.00
2023-05-13T22:11:01.308Z,15.50
2023-05-13T22:13:30.825Z,15.40
2023-05-13T22:15:59.414Z,15.50
2023-05-13T22:18:28.326Z,15.50
2023-05-13T22:20:58.811Z,15.70
2023-05-13T22:23:31.534Z,16.10
2023-05-13T22:25:59.968Z,16.40
2023-05-13T22:28:28.389Z,16.60
2023-05-13T22:30:57.026Z,16.40
2023-05-13T22:33:25.668Z,16.60
2023-05-13T22:35:54.036Z,16.80
2023-05-13T22:38:22.387Z,17.00
2023-05-13T22:40:54.826Z,17.10
2023-05-13T22:43:23.861Z,16.70
2023-05-13T22:45:52.188Z,16.10
2023-05-13T22:48:20.610Z,15.60
2023-05-13T22:50:50.138Z,15.30
2023-05-13T22:53:20.850Z,15.40
2023-05-13T22:55:49.251Z,15.60
2023-05-13T22:58:19.872Z,15.80
2023-05-13T23:00:49.339Z,16.20
2023-05-13T23:03:18.644Z,16.40
2023-05-13T23:05:47.065Z,16.40
2023-05-13T23:08:15.506Z,16.60
2023-05-13T23:10:44.143Z,16.30
2023-05-13T23:13:13.582Z,15.70
2023-05-13T23:15:43.486Z,15.50
2023-05-13T23:18:11.984Z,15.70
2023-05-13T23:20:40.891Z,15.90
2023-05-13T23:23:09.332Z,16.10
2023-05-13T23:25:37.904Z,16.40
2023-05-13T23:28:06.275Z,16.00
2023-05-13T23:30:34.752Z,15.90
2023-05-13T23:33:04.570Z,16.10
2023-05-13T23:35:33.914Z,16.20
2023-05-13T23:38:02.865Z,16.30
2023-05-13T23:40:31.286Z,16.60
2023-05-13T23:42:59.853Z,16.80
2023-05-13T23:45:28.278Z,16.30
2023-05-13T23:47:56.719Z,15.70
2023-05-13T23:50:29.337Z,15.30
2023-05-13T23:52:57.626Z,15.20
2023-05-13T23:55:27.234Z,15.40
2023-05-13T23:57:56.490Z,15.40
